createdAt,value
2019-01-20T00:01:13.203Z,6.70
2019-01-20T00:03:43.618Z,6.70
2019-01-20T00:06:14.045Z,6.70
2019-01-20T00:08:44.470Z,6.80
2019-01-20T00:11:16.802Z,6.80
2019-01-20T00:13:47.049Z,6.80
2019-01-20T00:16:17.597Z,6.70
2019-01-20T00:18:48.020Z,6.70
2019-01-20T00:21:18.449Z,6.60
2019-01-20T00:23:48.877Z,6.60
2019-01-20T00:26:19.335Z,6.50
2019-01-20T00:28:50.313Z,6.40
2019-01-20T00:31:20.818Z,6.40
2019-01-20T00:33:51.301Z,6.40
2019-01-20T00:36:21.728Z,6.40
2019-01-20T00:38:52.158Z,6.40
2019-01-20T00:41:24.212Z,6.40
2019-01-20T00:43:54.651Z,6.40
2019-01-20T00:46:25.078Z,6.40
2019-01-20T00:48:55.500Z,6.40
2019-01-20T00:51:26.409Z,6.40
2019-01-20T00:53:57.040Z,6.50
2019-01-20T00:56:27.497Z,6.50
2019-01-20T00:58:58.973Z,6.60
2019-01-20T01:01:29.609Z,6.60
2019-01-20T01:04:00.032Z,6.60
2019-01-20T01:06:30.646Z,6.70
2019-01-20T01:09:01.070Z,6.70
2019-01-20T01:11:32.020Z,6.70
2019-01-20T01:14:02.720Z,6.70
2019-01-20T01:16:33.169Z,6.70
2019-01-20T01:19:03.704Z,6.70
2019-01-20T01:21:34.125Z,6.70
2019-01-20T01:24:04.757Z,6.60
2019-01-20T01:26:36.834Z,6.60
2019-01-20T01:29:07.453Z,6.60
2019-01-20T01:31:37.894Z,6.50
2019-01-20T01:34:08.432Z,6.40
2019-01-20T01:36:38.942Z,6.30
2019-01-20T01:39:10.393Z,6.20
2019-01-20T01:41:40.817Z,6.20
2019-01-20T01:44:11.257Z,6.10
2019-01-20T01:46:41.674Z,6.00
2019-01-20T01:49:12.304Z,6.00
2019-01-20T01:51:42.729Z,6.00
2019-01-20T01:54:13.174Z,6.00
2019-01-20T01:56:43.585Z,6.00
2019-01-20T01:59:14.015Z,5.90
2019-01-20T02:01:44.438Z,6.00
2019-01-20T02:04:14.923Z,6.10
2019-01-20T02:06:45.395Z,6.20
2019-01-20T02:09:15.821Z,6.30
2019-01-20T02:11:46.942Z,6.30
2019-01-20T02:14:17.597Z,6.30
2019-01-20T02:16:48.025Z,6.30
2019-01-20T02:19:18.455Z,6.30
2019-01-20T02:21:48.881Z,6.30
2019-01-20T02:24:19.308Z,6.30
2019-01-20T02:26:49.734Z,6.40
2019-01-20T02:29:20.157Z,6.40
2019-01-20T02:31:50.585Z,6.40
2019-01-20T02:34:21.014Z,6.40
2019-01-20T02:36:51.464Z,6.40
2019-01-20T02:39:21.869Z,6.40
2019-01-20T02:41:55.305Z,6.40
2019-01-20T02:44:24.363Z,6.40
2019-01-20T02:46:55.005Z,6.50
2019-01-20T02:49:25.426Z,6.50
2019-01-20T02:51:56.157Z,6.40
2019-01-20T02:54:26.682Z,6.40
2019-01-20T02:56:57.109Z,6.40
2019-01-20T02:59:27.522Z,6.50
2019-01-20T03:01:57.963Z,6.40
2019-01-20T03:04:28.392Z,6.40
2019-01-20T03:06:58.894Z,6.30
2019-01-20T03:09:29.350Z,6.30
2019-01-20T03:12:03.609Z,6.30
2019-01-20T03:14:31.837Z,6.30
2019-01-20T03:17:02.487Z,6.30
2019-01-20T03:19:33.082Z,6.30
2019-01-20T03:22:03.531Z,6.30
2019-01-20T03:24:33.961Z,6.40
2019-01-20T03:27:04.570Z,6.40
2019-01-20T03:29:35.016Z,6.50
2019-01-20T03:32:05.442Z,6.50
2019-01-20T03:34:35.868Z,6.50
2019-01-20T03:37:06.398Z,6.50
2019-01-20T03:39:36.854Z,6.50
2019-01-20T03:42:11.851Z,6.50
2019-01-20T03:44:39.422Z,6.50
2019-01-20T03:47:09.845Z,6.60
2019-01-20T03:49:40.275Z,6.50
2019-01-20T03:52:10.702Z,6.50
2019-01-20T03:54:41.386Z,6.40
2019-01-20T03:57:11.862Z,6.40
2019-01-20T03:59:42.289Z,6.30
2019-01-20T04:02:12.922Z,6.10
2019-01-20T04:04:43.351Z,6.00
2019-01-20T04:07:13.775Z,6.00
2019-01-20T04:09:44.258Z,5.90
2019-01-20T04:12:20.523Z,5.80
2019-01-20T04:14:46.797Z,5.70
2019-01-20T04:17:17.223Z,5.70
2019-01-20T04:19:47.648Z,5.60
2019-01-20T04:22:18.077Z,5.50
2019-01-20T04:24:48.507Z,5.40
2019-01-20T04:27:18.931Z,5.30
2019-01-20T04:29:49.358Z,5.30
2019-01-20T04:32:19.786Z,5.30
2019-01-20T04:34:50.213Z,5.40
2019-01-20T04:37:20.640Z,5.40
2019-01-20T04:39:51.066Z,5.50
2019-01-20T04:42:28.716Z,5.60
2019-01-20T04:44:53.663Z,5.70
2019-01-20T04:47:24.089Z,5.80
2019-01-20T04:49:54.521Z,5.90
2019-01-20T04:52:24.942Z,6.00
2019-01-20T04:54:55.633Z,6.00
2019-01-20T04:57:26.289Z,6.10
2019-01-20T04:59:56.735Z,6.10
2019-01-20T05:02:27.161Z,6.20
2019-01-20T05:04:57.589Z,6.30
2019-01-20T05:07:28.017Z,6.30
2019-01-20T05:09:58.443Z,6.30
2019-01-20T05:12:28.869Z,6.30
2019-01-20T05:14:59.346Z,6.40
2019-01-20T05:17:29.737Z,6.40
2019-01-20T05:20:00.281Z,6.40
2019-01-20T05:22:30.681Z,6.40
2019-01-20T05:25:01.106Z,6.50
2019-01-20T05:27:31.536Z,6.40
2019-01-20T05:30:01.961Z,6.50
2019-01-20T05:32:32.478Z,6.50
2019-01-20T05:35:02.917Z,6.50
2019-01-20T05:37:33.347Z,6.50
2019-01-20T05:40:04.047Z,6.40
2019-01-20T05:42:34.506Z,6.40
2019-01-20T05:45:06.116Z,6.40
2019-01-20T05:47:36.705Z,6.30
2019-01-20T05:50:09.099Z,6.30
2019-01-20T05:52:39.489Z,6.20
2019-01-20T05:55:10.671Z,6.10
2019-01-20T05:57:41.383Z,6.10
2019-01-20T06:00:24.251Z,6.00
2019-01-20T06:02:55.536Z,5.90
2019-01-20T06:05:25.962Z,5.90
2019-01-20T06:07:56.391Z,5.90
2019-01-20T06:10:26.991Z,5.90
2019-01-20T06:12:57.449Z,6.00
2019-01-20T06:15:27.873Z,6.20
2019-01-20T06:17:58.610Z,6.30
2019-01-20T06:20:29.037Z,6.30
2019-01-20T06:22:59.472Z,6.30
2019-01-20T06:25:29.889Z,6.40
2019-01-20T06:28:00.318Z,6.40
2019-01-20T06:30:34.503Z,6.50
2019-01-20T06:33:04.970Z,6.50
2019-01-20T06:35:35.390Z,6.50
2019-01-20T06:38:05.815Z,6.60
2019-01-20T06:40:36.241Z,6.60
2019-01-20T06:43:06.664Z,6.70
2019-01-20T06:45:37.094Z,6.70
2019-01-20T06:48:07.522Z,6.70
2019-01-20T06:50:37.976Z,6.70
2019-01-20T06:53:08.374Z,6.70
2019-01-20T06:55:38.802Z,6.80
2019-01-20T06:58:09.971Z,6.80
2019-01-20T07:00:41.397Z,6.90
2019-01-20T07:03:11.826Z,6.90
2019-01-20T07:05:42.248Z,7.00
2019-01-20T07:08:13.052Z,7.00
2019-01-20T07:10:43.515Z,7.10
2019-01-20T07:13:13.941Z,7.10
2019-01-20T07:15:44.370Z,7.10
2019-01-20T07:18:14.798Z,7.10
2019-01-20T07:20:45.278Z,7.10
2019-01-20T07:23:15.754Z,7.20
2019-01-20T07:25:46.183Z,7.30
2019-01-20T07:28:16.608Z,7.30
2019-01-20T07:30:47.035Z,7.40
2019-01-20T07:33:17.655Z,7.40
2019-01-20T07:35:48.193Z,7.40
2019-01-20T07:38:18.622Z,7.40
2019-01-20T07:40:49.048Z,7.40
2019-01-20T07:43:19.478Z,7.40
2019-01-20T07:45:49.902Z,7.50
2019-01-20T07:48:20.329Z,7.50
2019-01-20T07:50:50.757Z,7.60
2019-01-20T07:53:21.210Z,7.60
2019-01-20T07:56:10.771Z,7.60
2019-01-20T07:58:41.394Z,7.60
2019-01-20T08:01:11.818Z,7.50
2019-01-20T08:03:42.251Z,7.50
2019-01-20T08:06:12.673Z,7.50
2019-01-20T08:08:43.095Z,7.50
2019-01-20T08:11:13.539Z,7.50
2019-01-20T08:13:43.953Z,7.40
2019-01-20T08:16:14.384Z,7.40
2019-01-20T08:18:44.819Z,7.40
2019-01-20T08:21:16.270Z,7.40
2019-01-20T08:23:46.729Z,7.50
2019-01-20T08:26:17.226Z,7.50
2019-01-20T08:28:47.643Z,7.50
2019-01-20T08:31:18.079Z,7.40
2019-01-20T08:33:48.493Z,7.40
2019-01-20T08:36:18.922Z,7.40
2019-01-20T08:38:49.349Z,7.40
2019-01-20T08:41:19.779Z,7.40
2019-01-20T08:43:50.207Z,7.40
2019-01-20T08:46:34.942Z,7.50
2019-01-20T08:49:06.226Z,7.50
2019-01-20T08:51:38.276Z,7.50
2019-01-20T08:54:08.862Z,7.70
2019-01-20T08:56:39.363Z,7.80
2019-01-20T08:59:10.097Z,7.90
2019-01-20T09:01:59.556Z,8.00
2019-01-20T09:04:30.001Z,8.10
2019-01-20T09:07:00.401Z,8.10
2019-01-20T09:09:30.825Z,8.10
2019-01-20T09:12:01.255Z,8.20
2019-01-20T09:14:31.681Z,8.20
2019-01-20T09:17:02.289Z,8.30
2019-01-20T09:19:32.742Z,8.40
2019-01-20T09:22:03.179Z,8.40
2019-01-20T09:24:33.813Z,8.50
2019-01-20T09:27:04.225Z,8.60
2019-01-20T09:29:34.868Z,8.80
2019-01-20T09:32:05.286Z,8.80
2019-01-20T09:34:35.709Z,8.80
2019-01-20T09:37:06.240Z,8.90
2019-01-20T09:39:36.669Z,8.90
2019-01-20T09:42:07.092Z,8.80
2019-01-20T09:44:37.520Z,8.80
2019-01-20T09:47:07.950Z,8.80
2019-01-20T09:49:38.373Z,8.80
2019-01-20T09:52:09.018Z,8.90
2019-01-20T09:54:39.435Z,9.00
2019-01-20T09:57:09.913Z,9.20
2019-01-20T09:59:40.390Z,9.30
2019-01-20T10:02:10.917Z,9.40
2019-01-20T10:04:41.460Z,9.30
2019-01-20T10:07:11.979Z,9.10
2019-01-20T10:09:42.404Z,9.00
2019-01-20T10:12:12.845Z,8.80
2019-01-20T10:14:43.261Z,8.70
2019-01-20T10:17:13.686Z,8.70
2019-01-20T10:19:44.113Z,8.80
2019-01-20T10:22:14.541Z,9.00
2019-01-20T10:24:44.966Z,9.40
2019-01-20T10:27:15.392Z,9.80
2019-01-20T10:29:45.844Z,9.80
2019-01-20T10:32:16.360Z,9.90
2019-01-20T10:34:47.511Z,9.70
2019-01-20T10:37:18.089Z,9.60
2019-01-20T10:39:48.553Z,9.50
2019-01-20T10:42:18.981Z,9.40
2019-01-20T10:44:49.405Z,9.30
2019-01-20T10:47:19.838Z,9.30
2019-01-20T10:49:50.481Z,9.20
2019-01-20T10:52:20.894Z,9.00
2019-01-20T10:54:51.320Z,9.00
2019-01-20T10:57:21.748Z,8.90
2019-01-20T10:59:52.227Z,8.90
2019-01-20T11:02:22.706Z,8.90
2019-01-20T11:04:57.521Z,9.10
2019-01-20T11:07:25.501Z,9.20
2019-01-20T11:09:55.930Z,9.40
2019-01-20T11:12:26.464Z,9.70
2019-01-20T11:14:56.886Z,10.10
2019-01-20T11:17:27.470Z,10.60
2019-01-20T11:19:57.945Z,11.20
2019-01-20T11:22:28.373Z,11.60
2019-01-20T11:24:58.799Z,12.00
2019-01-20T11:27:29.226Z,12.10
2019-01-20T11:29:59.654Z,12.00
2019-01-20T11:32:30.124Z,11.60
2019-01-20T11:35:00.610Z,11.20
2019-01-20T11:37:31.035Z,11.00
2019-01-20T11:40:01.463Z,10.90
2019-01-20T11:42:31.892Z,11.00
2019-01-20T11:45:02.328Z,11.20
2019-01-20T11:47:32.754Z,11.30
2019-01-20T11:50:03.168Z,11.60
2019-01-20T11:52:33.598Z,12.00
2019-01-20T11:55:04.410Z,12.00
2019-01-20T11:57:34.872Z,11.60
2019-01-20T12:00:06.673Z,11.30
2019-01-20T12:02:37.195Z,10.90
2019-01-20T12:05:18.953Z,10.40
2019-01-20T12:07:49.599Z,10.10
2019-01-20T12:10:20.312Z,9.70
2019-01-20T12:13:09.692Z,9.50
2019-01-20T12:15:40.104Z,9.30
2019-01-20T12:18:10.638Z,9.20
2019-01-20T12:20:41.180Z,9.00
2019-01-20T12:23:11.593Z,8.90
2019-01-20T12:25:42.191Z,8.90
2019-01-20T12:28:12.655Z,9.10
2019-01-20T12:30:43.078Z,9.20
2019-01-20T12:33:14.644Z,9.20
2019-01-20T12:35:45.069Z,9.20
2019-01-20T12:38:15.486Z,9.20
2019-01-20T12:40:48.283Z,9.30
2019-01-20T12:43:18.692Z,9.70
2019-01-20T12:45:49.133Z,10.00
2019-01-20T12:48:19.550Z,10.10
2019-01-20T12:50:50.150Z,10.20
2019-01-20T12:53:20.610Z,10.30
2019-01-20T12:55:51.036Z,10.30
2019-01-20T12:58:21.461Z,10.20
2019-01-20T13:00:51.901Z,10.10
2019-01-20T13:03:22.317Z,10.00
2019-01-20T13:05:53.062Z,10.00
2019-01-20T13:08:23.550Z,9.80
2019-01-20T13:10:54.089Z,9.90
2019-01-20T13:13:24.538Z,9.90
2019-01-20T13:15:54.967Z,9.90
2019-01-20T13:18:25.390Z,9.90
2019-01-20T13:20:55.821Z,9.80
2019-01-20T13:23:26.248Z,9.70
2019-01-20T13:25:56.674Z,9.50
2019-01-20T13:28:27.098Z,9.30
2019-01-20T13:30:57.525Z,9.20
2019-01-20T13:33:27.953Z,9.30
2019-01-20T13:35:58.433Z,9.30
2019-01-20T13:38:29.781Z,9.20
2019-01-20T13:41:06.809Z,9.20
2019-01-20T13:43:37.239Z,9.40
2019-01-20T13:46:07.669Z,9.60
2019-01-20T13:48:38.090Z,9.70
2019-01-20T13:51:08.517Z,9.60
2019-01-20T13:53:39.161Z,9.60
2019-01-20T13:56:09.577Z,9.50
2019-01-20T13:58:40.939Z,9.50
2019-01-20T14:01:11.459Z,9.30
2019-01-20T14:03:41.882Z,9.20
2019-01-20T14:06:12.310Z,9.00
2019-01-20T14:08:44.354Z,8.90
2019-01-20T14:11:15.134Z,8.90
2019-01-20T14:14:04.393Z,9.00
2019-01-20T14:16:34.991Z,9.00
2019-01-20T14:19:05.441Z,9.00
2019-01-20T14:21:35.862Z,9.10
2019-01-20T14:24:06.393Z,9.00
2019-01-20T14:26:36.817Z,8.90
2019-01-20T14:29:07.350Z,8.80
2019-01-20T14:31:37.780Z,8.60
2019-01-20T14:34:08.201Z,8.50
2019-01-20T14:36:38.631Z,8.60
2019-01-20T14:39:13.329Z,8.50
2019-01-20T14:41:43.786Z,8.50
2019-01-20T14:44:14.208Z,8.40
2019-01-20T14:46:44.649Z,8.40
2019-01-20T14:49:15.077Z,8.40
2019-01-20T14:51:45.493Z,8.40
2019-01-20T14:54:15.921Z,8.30
2019-01-20T14:56:46.345Z,8.50
2019-01-20T14:59:16.773Z,8.60
2019-01-20T15:01:47.207Z,8.70
2019-01-20T15:04:17.845Z,8.70
2019-01-20T15:06:48.258Z,8.60
2019-01-20T15:09:18.791Z,8.60
2019-01-20T15:11:49.241Z,8.60
2019-01-20T15:14:19.653Z,8.60
2019-01-20T15:16:50.136Z,8.50
2019-01-20T15:19:21.849Z,8.50
2019-01-20T15:21:52.357Z,8.50
2019-01-20T15:24:22.948Z,8.50
2019-01-20T15:26:53.418Z,8.50
2019-01-20T15:29:23.854Z,8.40
2019-01-20T15:31:54.270Z,8.40
2019-01-20T15:34:24.698Z,8.40
2019-01-20T15:36:55.128Z,8.40
2019-01-20T15:39:25.550Z,8.40
2019-01-20T15:41:56.034Z,8.40
2019-01-20T15:44:26.507Z,8.40
2019-01-20T15:46:56.936Z,8.30
2019-01-20T15:49:27.361Z,8.30
2019-01-20T15:51:57.785Z,8.20
2019-01-20T15:54:28.213Z,8.20
2019-01-20T15:56:58.641Z,8.20
2019-01-20T15:59:29.069Z,8.20
2019-01-20T16:01:59.495Z,8.20
2019-01-20T16:04:29.923Z,8.20
2019-01-20T16:07:00.349Z,8.10
2019-01-20T16:09:30.995Z,8.20
2019-01-20T16:12:01.509Z,8.10
2019-01-20T16:14:31.970Z,8.10
2019-01-20T16:17:21.325Z,8.00
2019-01-20T16:19:52.985Z,7.80
2019-01-20T16:22:23.393Z,7.60
2019-01-20T16:24:53.817Z,7.60
2019-01-20T16:27:24.334Z,7.50
2019-01-20T16:29:54.777Z,7.30
2019-01-20T16:32:25.215Z,7.20
2019-01-20T16:34:55.629Z,7.10
2019-01-20T16:37:26.059Z,7.00
2019-01-20T16:39:56.701Z,7.00
2019-01-20T16:42:27.333Z,7.00
2019-01-20T16:44:58.068Z,7.10
2019-01-20T16:47:28.481Z,7.00
2019-01-20T16:49:58.908Z,6.90
2019-01-20T16:52:29.339Z,6.70
2019-01-20T16:54:59.762Z,6.60
2019-01-20T16:57:30.190Z,6.50
2019-01-20T17:00:00.617Z,6.50
2019-01-20T17:02:31.046Z,6.30
2019-01-20T17:05:01.472Z,6.30
2019-01-20T17:07:32.114Z,6.30
2019-01-20T17:10:02.638Z,6.30
2019-01-20T17:12:33.064Z,6.30
2019-01-20T17:15:03.484Z,6.30
2019-01-20T17:17:33.945Z,6.30
2019-01-20T17:20:04.763Z,6.30
2019-01-20T17:22:35.309Z,6.20
2019-01-20T17:25:06.886Z,6.20
2019-01-20T17:27:37.360Z,6.20
2019-01-20T17:30:11.214Z,6.30
2019-01-20T17:32:41.697Z,6.20
2019-01-20T17:35:12.544Z,6.30
2019-01-20T17:37:43.246Z,6.20
2019-01-20T17:40:20.055Z,6.10
2019-01-20T17:42:50.473Z,6.10
2019-01-20T17:45:23.207Z,6.00
2019-01-20T17:47:53.640Z,5.90
2019-01-20T17:50:27.733Z,5.80
2019-01-20T17:52:58.321Z,5.70
2019-01-20T17:55:28.752Z,5.60
2019-01-20T17:57:59.181Z,5.50
2019-01-20T18:00:37.602Z,5.40
2019-01-20T18:03:08.584Z,5.30
2019-01-20T18:05:39.262Z,5.30
2019-01-20T18:08:09.794Z,5.20
2019-01-20T18:10:40.233Z,5.20
2019-01-20T18:13:10.650Z,5.20
2019-01-20T18:15:41.282Z,5.10
2019-01-20T18:18:11.721Z,5.10
2019-01-20T18:20:42.366Z,5.00
2019-01-20T18:23:12.832Z,5.00
2019-01-20T18:25:43.365Z,5.00
2019-01-20T18:28:13.864Z,4.90
2019-01-20T18:30:44.254Z,4.80
2019-01-20T18:33:14.689Z,4.70
2019-01-20T18:35:45.117Z,4.70
2019-01-20T18:38:15.529Z,4.60
2019-01-20T18:40:45.970Z,4.60
2019-01-20T18:43:16.406Z,4.60
2019-01-20T18:45:46.815Z,4.60
2019-01-20T18:48:17.417Z,4.60
2019-01-20T18:50:47.934Z,4.60
2019-01-20T18:53:18.403Z,4.60
2019-01-20T18:55:48.830Z,4.60
2019-01-20T18:58:19.255Z,4.50
2019-01-20T19:00:51.781Z,4.40
2019-01-20T19:03:22.267Z,4.40
2019-01-20T19:05:52.687Z,4.40
2019-01-20T19:08:23.113Z,4.40
2019-01-20T19:10:53.541Z,4.50
2019-01-20T19:13:23.977Z,4.60
2019-01-20T19:15:54.393Z,4.60
2019-01-20T19:18:24.998Z,4.60
2019-01-20T19:20:55.670Z,4.70
2019-01-20T19:23:26.257Z,4.70
2019-01-20T19:25:56.717Z,4.80
2019-01-20T19:28:27.141Z,4.80
2019-01-20T19:30:57.570Z,4.80
2019-01-20T19:33:27.999Z,4.70
2019-01-20T19:35:58.428Z,4.80
2019-01-20T19:38:28.854Z,4.80
2019-01-20T19:41:00.338Z,4.90
2019-01-20T19:43:30.952Z,4.90
2019-01-20T19:46:01.361Z,4.90
2019-01-20T19:48:31.789Z,5.00
2019-01-20T19:51:02.334Z,5.10
2019-01-20T19:53:32.777Z,5.20
2019-01-20T19:56:22.230Z,5.20
2019-01-20T19:58:53.610Z,5.30
2019-01-20T20:01:30.781Z,5.30
2019-01-20T20:03:58.120Z,5.30
2019-01-20T20:06:30.290Z,5.30
2019-01-20T20:09:00.826Z,5.30
2019-01-20T20:11:33.136Z,5.40
2019-01-20T20:14:03.607Z,5.40
2019-01-20T20:16:34.048Z,5.50
2019-01-20T20:19:04.853Z,5.50
2019-01-20T20:21:36.248Z,5.60
2019-01-20T20:24:07.853Z,5.60
2019-01-20T20:26:38.710Z,5.60
2019-01-20T20:29:09.153Z,5.60
2019-01-20T20:31:39.560Z,5.60
2019-01-20T20:34:10.313Z,5.50
2019-01-20T20:36:40.725Z,5.50
2019-01-20T20:39:11.447Z,5.60
2019-01-20T20:41:42.023Z,5.50
2019-01-20T20:44:14.053Z,5.50
2019-01-20T20:46:45.637Z,5.50
2019-01-20T20:49:16.705Z,5.50
2019-01-20T20:51:47.356Z,5.50
2019-01-20T20:54:17.809Z,5.40
2019-01-20T20:56:48.622Z,5.40
2019-01-20T20:59:19.138Z,5.30
2019-01-20T21:01:49.707Z,5.20
2019-01-20T21:04:20.142Z,5.10
2019-01-20T21:06:50.558Z,5.00
2019-01-20T21:09:21.002Z,5.00
2019-01-20T21:11:52.433Z,5.00
2019-01-20T21:14:22.907Z,4.90
2019-01-20T21:16:53.301Z,4.90
2019-01-20T21:19:23.897Z,4.80
2019-01-20T21:21:54.362Z,4.80
2019-01-20T21:24:24.777Z,4.80
2019-01-20T21:26:55.522Z,4.80
2019-01-20T21:29:26.155Z,4.70
2019-01-20T21:31:56.775Z,4.60
2019-01-20T21:34:27.505Z,4.50
2019-01-20T21:36:57.934Z,4.40
2019-01-20T21:39:28.362Z,4.40
2019-01-20T21:41:58.789Z,4.40
2019-01-20T21:44:29.212Z,4.30
2019-01-20T21:46:59.655Z,4.30
2019-01-20T21:49:30.073Z,4.30
2019-01-20T21:52:00.497Z,4.30
2019-01-20T21:54:30.925Z,4.30
2019-01-20T21:57:01.351Z,4.30
2019-01-20T21:59:31.877Z,4.20
2019-01-20T22:02:02.411Z,4.20
2019-01-20T22:04:32.834Z,4.10
2019-01-20T22:07:03.267Z,4.10
2019-01-20T22:09:33.688Z,4.00
2019-01-20T22:12:04.293Z,4.00
2019-01-20T22:14:34.749Z,3.90
2019-01-20T22:17:05.350Z,4.00
2019-01-20T22:19:35.984Z,3.90
2019-01-20T22:22:06.541Z,3.90
2019-01-20T22:24:36.971Z,3.80
2019-01-20T22:27:07.398Z,3.80
2019-01-20T22:29:37.826Z,3.70
2019-01-20T22:32:08.305Z,3.70
2019-01-20T22:34:38.778Z,3.70
2019-01-20T22:37:09.206Z,3.60
2019-01-20T22:39:39.634Z,3.60
2019-01-20T22:42:10.062Z,3.60
2019-01-20T22:44:40.490Z,3.60
2019-01-20T22:47:11.016Z,3.50
2019-01-20T22:49:41.545Z,3.50
2019-01-20T22:52:11.977Z,3.50
2019-01-20T22:54:42.402Z,3.60
2019-01-20T22:57:12.829Z,3.50
2019-01-20T22:59:43.278Z,3.50
2019-01-20T23:02:14.853Z,3.50
2019-01-20T23:04:45.337Z,3.50
2019-01-20T23:07:15.785Z,3.50
2019-01-20T23:09:46.318Z,3.50
2019-01-20T23:12:16.719Z,3.50
2019-01-20T23:14:47.148Z,3.50
2019-01-20T23:17:17.573Z,3.60
2019-01-20T23:19:48.172Z,3.70
2019-01-20T23:22:18.633Z,3.70
2019-01-20T23:24:49.061Z,3.70
2019-01-20T23:27:19.489Z,3.70
2019-01-20T23:29:49.913Z,3.70
2019-01-20T23:32:20.343Z,3.80
2019-01-20T23:34:50.813Z,3.70
2019-01-20T23:37:21.297Z,3.70
2019-01-20T23:39:51.725Z,3.60
2019-01-20T23:42:22.154Z,3.60
2019-01-20T23:44:52.577Z,3.50
2019-01-20T23:47:23.005Z,3.50
2019-01-20T23:49:53.430Z,3.50
2019-01-20T23:52:23.860Z,3.50
2019-01-20T23:54:54.285Z,3.40
2019-01-20T23:57:24.712Z,3.40
2019-01-20T23:59:55.157Z,3.40
